createdAt,value
2018-10-19T00:01:39.233Z,10.86
2018-10-19T00:04:08.910Z,10.97
2018-10-19T00:06:39.024Z,11.03
2018-10-19T00:09:10.408Z,10.99
2018-10-19T00:11:40.207Z,10.88
2018-10-19T00:14:10.031Z,10.90
2018-10-19T00:16:39.795Z,11.02
2018-10-19T00:19:09.844Z,11.08
2018-10-19T00:21:39.589Z,11.09
2018-10-19T00:24:09.356Z,10.95
2018-10-19T00:26:39.211Z,10.80
2018-10-19T00:29:09.028Z,10.72
2018-10-19T00:31:39.186Z,10.69
2018-10-19T00:34:09.176Z,10.62
2018-10-19T00:36:39.328Z,10.57
2018-10-19T00:39:11.430Z,10.48
2018-10-19T00:41:41.712Z,10.41
2018-10-19T00:44:11.851Z,10.35
2018-10-19T00:46:41.555Z,10.26
2018-10-19T00:49:11.303Z,10.19
2018-10-19T00:51:41.189Z,10.09
2018-10-19T00:54:10.967Z,10.01
2018-10-19T00:56:40.775Z,9.93
2018-10-19T00:59:10.654Z,9.85
2018-10-19T01:01:40.383Z,9.78
2018-10-19T01:04:10.150Z,9.74
2018-10-19T01:06:39.905Z,9.67
2018-10-19T01:09:10.335Z,9.62
2018-10-19T01:11:40.158Z,9.58
2018-10-19T01:14:09.961Z,9.53
2018-10-19T01:16:39.864Z,9.48
2018-10-19T01:19:09.645Z,9.45
2018-10-19T01:21:39.393Z,9.39
2018-10-19T01:24:09.235Z,9.32
2018-10-19T01:26:39.021Z,9.25
2018-10-19T01:29:08.811Z,9.22
2018-10-19T01:31:39.960Z,9.15
2018-10-19T01:34:09.992Z,9.14
2018-10-19T01:36:43.259Z,9.15
2018-10-19T01:39:13.681Z,9.20
2018-10-19T01:41:43.973Z,9.28
2018-10-19T01:44:13.672Z,9.36
2018-10-19T01:46:50.444Z,9.49
2018-10-19T01:49:20.869Z,9.57
2018-10-19T01:51:50.587Z,9.61
2018-10-19T01:54:20.303Z,9.59
2018-10-19T01:56:50.015Z,9.57
2018-10-19T01:59:19.743Z,9.51
2018-10-19T02:01:49.501Z,9.49
2018-10-19T02:04:19.279Z,9.43
2018-10-19T02:06:49.134Z,9.46
2018-10-19T02:09:18.821Z,9.53
2018-10-19T02:11:48.592Z,9.53
2018-10-19T02:14:18.400Z,9.51
2018-10-19T02:16:48.225Z,9.49
2018-10-19T02:19:18.077Z,9.47
2018-10-19T02:21:47.831Z,9.48
2018-10-19T02:24:17.572Z,9.52
2018-10-19T02:26:47.334Z,9.55
2018-10-19T02:29:17.112Z,9.58
2018-10-19T02:31:46.887Z,9.62
2018-10-19T02:34:16.657Z,9.68
2018-10-19T02:36:46.414Z,9.76
2018-10-19T02:39:16.218Z,9.77
2018-10-19T02:41:46.047Z,9.78
2018-10-19T02:44:15.760Z,9.77
2018-10-19T02:46:45.642Z,9.75
2018-10-19T02:49:15.336Z,9.77
2018-10-19T02:51:45.192Z,9.76
2018-10-19T02:54:14.958Z,9.79
2018-10-19T02:56:44.882Z,9.84
2018-10-19T02:59:14.716Z,9.89
2018-10-19T03:01:44.558Z,9.96
2018-10-19T03:04:14.310Z,10.14
2018-10-19T03:06:44.147Z,10.13
2018-10-19T03:09:13.906Z,10.09
2018-10-19T03:11:43.700Z,10.01
2018-10-19T03:14:13.414Z,9.98
2018-10-19T03:16:43.139Z,10.06
2018-10-19T03:19:12.843Z,9.87
2018-10-19T03:21:43.021Z,9.64
2018-10-19T03:24:12.774Z,9.56
2018-10-19T03:26:42.637Z,9.45
2018-10-19T03:29:12.442Z,9.42
2018-10-19T03:31:42.096Z,9.31
2018-10-19T03:34:11.797Z,9.35
2018-10-19T03:36:41.494Z,9.33
2018-10-19T03:39:11.389Z,9.31
2018-10-19T03:41:41.062Z,9.31
2018-10-19T03:44:10.904Z,9.23
2018-10-19T03:46:40.729Z,9.24
2018-10-19T03:49:10.489Z,9.21
2018-10-19T03:51:40.204Z,9.11
2018-10-19T03:54:10.194Z,9.06
2018-10-19T03:56:39.939Z,8.97
2018-10-19T03:59:09.723Z,8.92
2018-10-19T04:01:39.396Z,8.84
2018-10-19T04:04:09.182Z,8.82
2018-10-19T04:06:38.922Z,8.82
2018-10-19T04:09:12.425Z,8.70
2018-10-19T04:11:42.563Z,8.64
2018-10-19T04:14:13.036Z,8.64
2018-10-19T04:16:42.773Z,8.62
2018-10-19T04:19:13.210Z,8.55
2018-10-19T04:21:43.005Z,8.52
2018-10-19T04:24:12.824Z,8.52
2018-10-19T04:26:42.536Z,8.50
2018-10-19T04:29:12.312Z,8.49
2018-10-19T04:31:42.117Z,8.38
2018-10-19T04:34:12.026Z,8.36
2018-10-19T04:36:41.748Z,8.35
2018-10-19T04:39:11.643Z,8.31
2018-10-19T04:41:41.404Z,8.34
2018-10-19T04:44:11.130Z,8.22
2018-10-19T04:46:41.437Z,8.24
2018-10-19T04:49:11.163Z,8.16
2018-10-19T04:51:40.977Z,8.20
2018-10-19T04:54:10.781Z,8.18
2018-10-19T04:56:40.585Z,8.06
2018-10-19T04:59:10.573Z,8.12
2018-10-19T05:01:40.282Z,8.08
2018-10-19T05:04:10.241Z,8.16
2018-10-19T05:06:40.090Z,8.13
2018-10-19T05:09:11.680Z,8.18
2018-10-19T05:11:41.549Z,8.07
2018-10-19T05:14:11.409Z,8.16
2018-10-19T05:16:41.128Z,8.08
2018-10-19T05:19:11.157Z,8.05
2018-10-19T05:21:40.933Z,8.01
2018-10-19T05:24:10.814Z,7.94
2018-10-19T05:26:40.782Z,7.97
2018-10-19T05:29:10.702Z,7.96
2018-10-19T05:31:41.108Z,7.96
2018-10-19T05:34:10.844Z,7.94
2018-10-19T05:36:40.664Z,7.91
2018-10-19T05:39:10.737Z,7.88
2018-10-19T05:41:40.718Z,7.92
2018-10-19T05:44:10.475Z,7.86
2018-10-19T05:46:40.293Z,7.93
2018-10-19T05:49:10.266Z,7.91
2018-10-19T05:51:40.124Z,7.84
2018-10-19T05:54:09.890Z,7.82
2018-10-19T05:56:39.644Z,7.82
2018-10-19T05:59:09.371Z,7.81
2018-10-19T06:01:39.062Z,7.84
2018-10-19T06:04:08.808Z,7.94
2018-10-19T06:06:38.794Z,8.00
2018-10-19T06:09:10.114Z,8.07
2018-10-19T06:11:40.335Z,8.13
2018-10-19T06:14:10.655Z,8.22
2018-10-19T06:16:40.632Z,8.28
2018-10-19T06:19:11.217Z,8.29
2018-10-19T06:21:41.138Z,8.33
2018-10-19T06:24:10.825Z,8.41
2018-10-19T06:26:40.730Z,8.47
2018-10-19T06:29:10.449Z,8.51
2018-10-19T06:31:40.182Z,8.59
2018-10-19T06:34:10.090Z,8.64
2018-10-19T06:36:39.870Z,8.77
2018-10-19T06:39:11.513Z,8.94
2018-10-19T06:41:41.448Z,9.14
2018-10-19T06:44:11.241Z,9.28
2018-10-19T06:46:41.260Z,9.42
2018-10-19T06:49:11.175Z,9.62
2018-10-19T06:51:40.923Z,9.84
2018-10-19T06:54:10.836Z,10.08
2018-10-19T06:56:40.795Z,10.30
2018-10-19T06:59:10.672Z,10.53
2018-10-19T07:01:40.330Z,10.57
2018-10-19T07:04:10.071Z,10.79
2018-10-19T07:06:39.829Z,10.97
2018-10-19T07:09:09.609Z,11.07
2018-10-19T07:11:39.342Z,11.10
2018-10-19T07:14:09.253Z,11.16
2018-10-19T07:16:38.897Z,11.13
2018-10-19T07:19:08.714Z,11.27
2018-10-19T07:21:38.640Z,11.41
2018-10-19T07:24:08.553Z,11.32
2018-10-19T07:26:38.429Z,11.46
2018-10-19T07:29:08.242Z,11.66
2018-10-19T07:31:38.168Z,11.84
2018-10-19T07:34:07.959Z,12.07
2018-10-19T07:36:37.683Z,12.19
2018-10-19T07:39:09.349Z,12.31
2018-10-19T07:41:39.096Z,12.25
2018-10-19T07:44:08.950Z,12.22
2018-10-19T07:46:38.778Z,12.11
2018-10-19T07:49:08.552Z,12.42
2018-10-19T07:51:38.223Z,12.38
2018-10-19T07:54:07.972Z,12.51
2018-10-19T07:56:37.769Z,12.57
2018-10-19T07:59:08.329Z,12.76
2018-10-19T08:01:38.406Z,12.82
2018-10-19T08:04:08.394Z,12.98
2018-10-19T08:06:38.223Z,13.23
2018-10-19T08:09:11.067Z,13.36
2018-10-19T08:11:40.899Z,13.45
2018-10-19T08:14:10.640Z,13.31
2018-10-19T08:16:40.296Z,13.45
2018-10-19T08:19:10.000Z,13.57
2018-10-19T08:21:40.906Z,13.50
2018-10-19T08:24:10.627Z,14.03
2018-10-19T08:26:40.409Z,13.86
2018-10-19T08:29:10.241Z,14.35
2018-10-19T08:31:39.901Z,14.09
2018-10-19T08:34:09.615Z,13.97
2018-10-19T08:36:39.384Z,13.93
2018-10-19T08:39:09.406Z,14.43
2018-10-19T08:41:39.171Z,14.40
2018-10-19T08:44:08.882Z,14.48
2018-10-19T08:46:39.425Z,14.33
2018-10-19T08:49:10.951Z,14.50
2018-10-19T08:51:41.473Z,14.73
2018-10-19T08:54:11.422Z,14.63
2018-10-19T08:56:41.527Z,14.94
2018-10-19T08:59:11.334Z,14.70
2018-10-19T09:01:40.983Z,14.88
2018-10-19T09:04:10.937Z,15.13
2018-10-19T09:06:40.575Z,15.71
2018-10-19T09:09:11.821Z,16.09
2018-10-19T09:11:42.020Z,17.20
2018-10-19T09:14:28.252Z,17.24
2018-10-19T09:16:58.085Z,17.73
2018-10-19T09:19:27.805Z,18.22
2018-10-19T09:21:57.576Z,18.61
2018-10-19T09:24:27.550Z,18.72
2018-10-19T09:26:57.264Z,18.29
2018-10-19T09:29:27.090Z,19.05
2018-10-19T09:31:56.799Z,19.26
2018-10-19T09:34:26.527Z,19.44
2018-10-19T09:36:56.440Z,19.62
2018-10-19T09:39:26.130Z,19.57
2018-10-19T09:41:56.009Z,20.60
2018-10-19T09:44:25.713Z,20.07
2018-10-19T09:46:55.470Z,20.40
2018-10-19T09:49:25.252Z,19.91
2018-10-19T09:51:55.022Z,19.44
2018-10-19T09:54:24.735Z,20.06
2018-10-19T09:56:54.451Z,20.42
2018-10-19T09:59:24.166Z,20.47
2018-10-19T10:01:53.848Z,21.34
2018-10-19T10:04:23.559Z,20.38
2018-10-19T10:06:53.313Z,21.31
2018-10-19T10:09:23.015Z,21.10
2018-10-19T10:11:52.755Z,20.53
2018-10-19T10:14:22.658Z,21.76
2018-10-19T10:16:52.626Z,21.17
2018-10-19T10:19:22.336Z,21.26
2018-10-19T10:21:53.070Z,20.03
2018-10-19T10:24:22.906Z,19.50
2018-10-19T10:26:52.781Z,20.16
2018-10-19T10:29:22.588Z,19.95
2018-10-19T10:31:52.377Z,20.45
2018-10-19T10:34:22.191Z,20.39
2018-10-19T10:36:51.925Z,20.51
2018-10-19T10:39:21.766Z,20.41
2018-10-19T10:41:51.472Z,20.25
2018-10-19T10:44:21.839Z,20.58
2018-10-19T10:46:51.613Z,19.82
2018-10-19T10:49:21.277Z,19.80
2018-10-19T10:51:50.997Z,20.08
2018-10-19T10:54:20.825Z,19.92
2018-10-19T10:56:50.628Z,20.75
2018-10-19T10:59:20.461Z,20.38
2018-10-19T11:01:50.238Z,19.87
2018-10-19T11:04:19.955Z,20.14
2018-10-19T11:06:49.803Z,20.75
2018-10-19T11:09:19.540Z,20.09
2018-10-19T11:11:49.299Z,20.72
2018-10-19T11:14:19.046Z,20.88
2018-10-19T11:16:48.771Z,20.40
2018-10-19T11:19:18.579Z,20.79
2018-10-19T11:21:48.465Z,20.11
2018-10-19T11:24:18.293Z,20.31
2018-10-19T11:26:48.057Z,20.53
2018-10-19T11:29:17.765Z,20.79
2018-10-19T11:31:47.432Z,20.78
2018-10-19T11:34:17.224Z,20.80
2018-10-19T11:36:46.865Z,20.10
2018-10-19T11:39:16.653Z,20.32
2018-10-19T11:41:46.477Z,20.39
2018-10-19T11:44:16.149Z,20.59
2018-10-19T11:46:45.941Z,20.72
2018-10-19T11:49:15.847Z,20.93
2018-10-19T11:51:45.480Z,20.86
2018-10-19T11:54:15.242Z,20.99
2018-10-19T11:56:44.932Z,20.16
2018-10-19T11:59:14.716Z,20.15
2018-10-19T12:01:44.541Z,20.37
2018-10-19T12:04:14.349Z,20.52
2018-10-19T12:06:44.028Z,20.67
2018-10-19T12:09:13.717Z,20.81
2018-10-19T12:11:43.510Z,20.63
2018-10-19T12:14:16.180Z,20.53
2018-10-19T12:16:46.058Z,20.01
2018-10-19T12:19:15.785Z,19.96
2018-10-19T12:21:45.493Z,20.17
2018-10-19T12:24:15.378Z,19.88
2018-10-19T12:26:45.090Z,20.00
2018-10-19T12:29:15.444Z,20.19
2018-10-19T12:31:45.351Z,20.62
2018-10-19T12:34:15.117Z,20.48
2018-10-19T12:36:44.840Z,20.22
2018-10-19T12:39:14.620Z,20.23
2018-10-19T12:41:44.365Z,20.06
2018-10-19T12:44:14.027Z,20.30
2018-10-19T12:47:00.486Z,20.44
2018-10-19T12:49:30.348Z,20.44
2018-10-19T12:52:00.071Z,20.39
2018-10-19T12:54:29.861Z,20.05
2018-10-19T12:56:59.747Z,20.74
2018-10-19T12:59:29.650Z,20.24
2018-10-19T13:01:59.519Z,20.71
2018-10-19T13:04:29.222Z,20.91
2018-10-19T13:06:59.142Z,21.00
2018-10-19T13:09:28.769Z,20.32
2018-10-19T13:11:58.709Z,20.23
2018-10-19T13:14:28.416Z,20.35
2018-10-19T13:16:58.214Z,20.68
2018-10-19T13:19:27.941Z,20.75
2018-10-19T13:21:57.790Z,20.50
2018-10-19T13:24:27.527Z,20.91
2018-10-19T13:26:57.358Z,21.04
2018-10-19T13:29:27.070Z,21.20
2018-10-19T13:31:56.797Z,21.55
2018-10-19T13:34:26.590Z,21.69
2018-10-19T13:36:56.337Z,21.63
2018-10-19T13:39:26.188Z,21.80
2018-10-19T13:41:56.017Z,21.27
2018-10-19T13:44:25.831Z,20.91
2018-10-19T13:46:55.667Z,21.33
2018-10-19T13:49:25.486Z,21.48
2018-10-19T13:51:55.226Z,20.89
2018-10-19T13:54:25.134Z,20.45
2018-10-19T13:56:54.890Z,20.51
2018-10-19T13:59:24.567Z,20.78
2018-10-19T14:01:54.283Z,20.14
2018-10-19T14:04:24.088Z,19.68
2018-10-19T14:06:53.828Z,20.06
2018-10-19T14:09:23.562Z,20.12
2018-10-19T14:11:53.474Z,19.89
2018-10-19T14:14:23.217Z,19.81
2018-10-19T14:16:53.072Z,19.92
2018-10-19T14:19:22.850Z,19.56
2018-10-19T14:21:52.641Z,19.95
2018-10-19T14:24:22.395Z,19.29
2018-10-19T14:26:52.130Z,18.64
2018-10-19T14:29:21.841Z,18.59
2018-10-19T14:31:51.570Z,18.75
2018-10-19T14:34:21.357Z,18.82
2018-10-19T14:36:51.169Z,19.06
2018-10-19T14:39:20.893Z,18.60
2018-10-19T14:41:50.628Z,18.81
2018-10-19T14:44:20.567Z,18.89
2018-10-19T14:46:50.341Z,18.37
2018-10-19T14:49:20.247Z,18.26
2018-10-19T14:51:50.103Z,18.35
2018-10-19T14:54:19.815Z,18.39
2018-10-19T14:56:49.618Z,18.29
2018-10-19T14:59:19.585Z,18.35
2018-10-19T15:01:49.429Z,18.15
2018-10-19T15:04:19.125Z,18.05
2018-10-19T15:06:49.061Z,18.18
2018-10-19T15:09:18.803Z,18.01
2018-10-19T15:11:48.865Z,17.66
2018-10-19T15:14:18.228Z,17.54
2018-10-19T15:16:48.191Z,17.66
2018-10-19T15:19:17.894Z,17.49
2018-10-19T15:21:47.732Z,17.33
2018-10-19T15:24:17.591Z,17.34
2018-10-19T15:26:47.193Z,17.26
2018-10-19T15:29:16.970Z,17.27
2018-10-19T15:31:46.583Z,17.21
2018-10-19T15:34:16.283Z,17.06
2018-10-19T15:36:46.240Z,17.03
2018-10-19T15:39:16.090Z,17.01
2018-10-19T15:41:45.869Z,17.07
2018-10-19T15:44:15.652Z,16.97
2018-10-19T15:46:45.468Z,16.83
2018-10-19T15:49:15.193Z,16.84
2018-10-19T15:51:44.913Z,16.82
2018-10-19T15:54:14.849Z,16.77
2018-10-19T15:56:44.631Z,16.68
2018-10-19T15:59:14.282Z,16.72
2018-10-19T16:01:44.093Z,16.66
2018-10-19T16:04:13.805Z,16.60
2018-10-19T16:06:43.670Z,16.55
2018-10-19T16:09:14.782Z,16.49
2018-10-19T16:11:45.009Z,16.55
2018-10-19T16:14:14.867Z,16.39
2018-10-19T16:16:44.664Z,16.24
2018-10-19T16:19:14.405Z,16.15
2018-10-19T16:21:44.194Z,16.08
2018-10-19T16:24:14.047Z,16.09
2018-10-19T16:26:43.726Z,16.02
2018-10-19T16:29:13.457Z,15.93
2018-10-19T16:31:43.196Z,15.80
2018-10-19T16:34:12.910Z,15.84
2018-10-19T16:36:42.756Z,15.89
2018-10-19T16:39:13.735Z,15.83
2018-10-19T16:41:43.373Z,15.85
2018-10-19T16:44:13.062Z,15.86
2018-10-19T16:46:42.888Z,15.76
2018-10-19T16:49:12.604Z,15.78
2018-10-19T16:51:42.333Z,15.66
2018-10-19T16:54:12.084Z,15.59
2018-10-19T16:56:41.775Z,15.53
2018-10-19T16:59:11.504Z,15.48
2018-10-19T17:01:41.289Z,15.41
2018-10-19T17:04:11.117Z,15.26
2018-10-19T17:06:40.802Z,15.13
2018-10-19T17:09:13.514Z,14.97
2018-10-19T17:11:43.590Z,14.82
2018-10-19T17:14:13.313Z,14.73
2018-10-19T17:16:43.105Z,14.78
2018-10-19T17:19:12.998Z,14.85
2018-10-19T17:21:42.799Z,14.74
2018-10-19T17:24:12.743Z,14.60
2018-10-19T17:26:42.484Z,14.58
2018-10-19T17:29:12.388Z,14.43
2018-10-19T17:31:42.197Z,14.22
2018-10-19T17:34:12.105Z,14.06
2018-10-19T17:36:41.884Z,14.00
2018-10-19T17:39:12.220Z,13.92
2018-10-19T17:41:41.891Z,13.84
2018-10-19T17:44:11.663Z,13.91
2018-10-19T17:46:41.414Z,13.89
2018-10-19T17:49:11.371Z,13.83
2018-10-19T17:51:41.209Z,13.79
2018-10-19T17:54:11.047Z,13.82
2018-10-19T17:56:41.654Z,13.74
2018-10-19T17:59:11.729Z,13.68
2018-10-19T18:01:41.487Z,13.73
2018-10-19T18:04:11.297Z,13.72
2018-10-19T18:06:41.181Z,13.65
2018-10-19T18:09:12.573Z,13.66
2018-10-19T18:11:42.661Z,13.66
2018-10-19T18:14:12.821Z,13.69
2018-10-19T18:16:42.987Z,13.81
2018-10-19T18:19:12.789Z,14.00
2018-10-19T18:21:42.830Z,14.05
2018-10-19T18:24:12.555Z,14.10
2018-10-19T18:26:42.405Z,14.13
2018-10-19T18:29:12.454Z,14.17
2018-10-19T18:31:42.206Z,14.15
2018-10-19T18:34:12.025Z,14.17
2018-10-19T18:36:42.008Z,14.15
2018-10-19T18:39:13.681Z,14.15
2018-10-19T18:41:44.279Z,14.12
2018-10-19T18:44:14.249Z,14.10
2018-10-19T18:46:44.465Z,14.07
2018-10-19T18:49:14.282Z,14.06
2018-10-19T18:51:44.195Z,14.05
2018-10-19T18:54:13.977Z,14.05
2018-10-19T18:56:43.953Z,14.04
2018-10-19T18:59:13.767Z,14.01
2018-10-19T19:01:43.480Z,13.98
2018-10-19T19:04:13.318Z,13.97
2018-10-19T19:06:43.183Z,13.98
2018-10-19T19:09:14.501Z,13.99
2018-10-19T19:11:44.446Z,13.94
2018-10-19T19:14:14.423Z,13.86
2018-10-19T19:16:44.341Z,13.74
2018-10-19T19:19:14.144Z,13.65
2018-10-19T19:21:43.997Z,13.51
2018-10-19T19:24:19.089Z,13.39
2018-10-19T19:26:48.860Z,13.26
2018-10-19T19:29:18.739Z,13.14
2018-10-19T19:31:48.678Z,12.97
2018-10-19T19:34:33.334Z,12.81
2018-10-19T19:37:03.171Z,12.74
2018-10-19T19:39:33.099Z,12.62
2018-10-19T19:42:08.757Z,12.56
2018-10-19T19:44:38.625Z,12.56
2018-10-19T19:47:12.783Z,12.73
2018-10-19T19:49:42.554Z,12.74
2018-10-19T19:52:12.346Z,12.76
2018-10-19T19:54:42.158Z,12.77
2018-10-19T19:57:12.972Z,12.80
2018-10-19T19:59:43.645Z,12.86
2018-10-19T20:02:14.279Z,12.83
2018-10-19T20:04:44.252Z,12.87
2018-10-19T20:07:14.107Z,12.88
2018-10-19T20:09:43.888Z,12.90
2018-10-19T20:12:13.714Z,12.98
2018-10-19T20:14:43.532Z,12.99
2018-10-19T20:17:13.941Z,12.97
2018-10-19T20:19:43.700Z,12.93
2018-10-19T20:22:13.499Z,12.87
2018-10-19T20:24:43.393Z,12.84
2018-10-19T20:27:13.257Z,12.81
2018-10-19T20:29:43.045Z,12.71
2018-10-19T20:32:12.877Z,12.57
2018-10-19T20:34:42.549Z,12.42
2018-10-19T20:37:12.295Z,12.30
2018-10-19T20:39:42.025Z,12.21
2018-10-19T20:42:12.029Z,12.13
2018-10-19T20:44:41.856Z,12.02
2018-10-19T20:47:11.749Z,11.95
2018-10-19T20:49:41.429Z,11.82
2018-10-19T20:52:11.178Z,11.70
2018-10-19T20:54:40.923Z,11.56
2018-10-19T20:57:10.690Z,11.52
2018-10-19T20:59:40.417Z,11.40
2018-10-19T21:02:10.341Z,11.32
2018-10-19T21:04:40.266Z,11.26
2018-10-19T21:07:10.059Z,11.21
2018-10-19T21:09:39.805Z,11.15
2018-10-19T21:12:09.631Z,11.12
2018-10-19T21:14:39.422Z,11.01
2018-10-19T21:17:09.211Z,10.96
2018-10-19T21:19:38.909Z,10.89
2018-10-19T21:22:08.858Z,10.76
2018-10-19T21:24:38.693Z,10.64
2018-10-19T21:27:08.708Z,10.52
2018-10-19T21:29:38.448Z,10.45
2018-10-19T21:32:08.634Z,10.34
2018-10-19T21:34:38.367Z,10.32
2018-10-19T21:37:08.147Z,10.23
2018-10-19T21:42:03.730Z,10.06
2018-10-19T21:44:33.597Z,10.01
2018-10-19T21:47:03.465Z,9.95
2018-10-19T21:49:33.322Z,9.88
2018-10-19T21:52:03.090Z,9.92
2018-10-19T21:54:33.000Z,9.86
2018-10-19T21:57:02.773Z,9.85
2018-10-19T21:59:32.585Z,9.83
2018-10-19T22:02:02.426Z,9.83
2018-10-19T22:04:32.154Z,9.82
2018-10-19T22:07:01.975Z,9.74
2018-10-19T22:09:31.745Z,9.72
2018-10-19T22:12:01.465Z,9.67
2018-10-19T22:14:31.208Z,9.61
2018-10-19T22:17:01.066Z,9.56
2018-10-19T22:19:31.021Z,9.51
2018-10-19T22:22:00.773Z,9.47
2018-10-19T22:24:30.576Z,9.36
2018-10-19T22:27:00.400Z,9.33
2018-10-19T22:29:30.164Z,9.28
2018-10-19T22:31:59.930Z,9.22
2018-10-19T22:34:29.960Z,9.15
2018-10-19T22:36:59.852Z,9.06
2018-10-19T22:39:29.745Z,8.94
2018-10-19T22:41:59.621Z,8.92
2018-10-19T22:44:29.466Z,8.92
2018-10-19T22:46:59.543Z,8.87
2018-10-19T22:49:29.587Z,8.86
2018-10-19T22:51:59.354Z,8.88
2018-10-19T22:54:29.111Z,8.83
2018-10-19T22:56:58.940Z,8.83
2018-10-19T22:59:28.708Z,8.73
2018-10-19T23:01:58.674Z,8.71
2018-10-19T23:04:28.598Z,8.65
2018-10-19T23:06:58.608Z,8.65
2018-10-19T23:09:28.458Z,8.68
2018-10-19T23:11:58.339Z,8.62
2018-10-19T23:14:28.932Z,8.55
2018-10-19T23:16:58.822Z,8.53
2018-10-19T23:19:28.692Z,8.44
2018-10-19T23:21:58.973Z,8.44
2018-10-19T23:24:28.830Z,8.42
2018-10-19T23:26:58.705Z,8.38
2018-10-19T23:29:28.611Z,8.35
2018-10-19T23:31:58.458Z,8.28
2018-10-19T23:34:28.449Z,8.19
2018-10-19T23:36:58.523Z,8.19
2018-10-19T23:39:28.379Z,8.17
2018-10-19T23:41:58.148Z,8.17
2018-10-19T23:44:27.892Z,8.17
2018-10-19T23:46:57.616Z,8.14
2018-10-19T23:49:27.500Z,8.16
2018-10-19T23:51:57.326Z,8.13
2018-10-19T23:54:27.010Z,8.10
2018-10-19T23:56:57.065Z,8.03
2018-10-19T23:59:26.794Z,8.04
